createdAt,value
2018-12-29T00:00:07.874Z,98751.05
2018-12-29T00:00:39.476Z,98752.27
2018-12-29T00:01:11.089Z,98757.83
2018-12-29T00:01:42.703Z,98759.97
2018-12-29T00:02:14.372Z,98761.25
2018-12-29T00:02:45.966Z,98761.25
2018-12-29T00:03:17.559Z,98762.15
2018-12-29T00:03:49.168Z,98772.84
2018-12-29T00:04:20.761Z,98767.71
2018-12-29T00:04:52.400Z,98763.45
2018-12-29T00:05:23.999Z,98759.16
2018-12-29T00:05:55.603Z,98763.39
2018-12-29T00:06:27.213Z,98731.74
2018-12-29T00:06:58.818Z,98767.13
2018-12-29T00:07:30.414Z,98758.99
2018-12-29T00:08:02.015Z,98765.36
2018-12-29T00:08:33.614Z,98767.48
2018-12-29T00:09:05.211Z,98767.42
2018-12-29T00:09:36.820Z,98764.20
2018-12-29T00:10:08.453Z,98762.84
2018-12-29T00:10:40.059Z,98768.23
2018-12-29T00:11:11.668Z,98757.56
2018-12-29T00:11:43.274Z,98766.05
2018-12-29T00:12:14.852Z,98763.17
2018-12-29T00:12:46.465Z,98758.35
2018-12-29T00:13:18.065Z,98762.26
2018-12-29T00:13:49.649Z,98768.66
2018-12-29T00:14:21.255Z,98771.19
2018-12-29T00:14:55.135Z,98766.51
2018-12-29T00:15:24.546Z,98762.70
2018-12-29T00:15:56.136Z,98768.05
2018-12-29T00:16:27.730Z,98772.05
2018-12-29T00:16:59.344Z,98767.13
2018-12-29T00:17:30.955Z,98765.53
2018-12-29T00:18:02.564Z,98760.52
2018-12-29T00:18:34.162Z,98764.96
2018-12-29T00:19:05.754Z,98768.14
2018-12-29T00:19:37.350Z,98763.71
2018-12-29T00:20:08.986Z,98763.11
2018-12-29T00:20:40.582Z,98766.37
2018-12-29T00:21:12.179Z,98763.69
2018-12-29T00:21:43.783Z,98773.84
2018-12-29T00:22:15.381Z,98767.80
2018-12-29T00:22:46.973Z,98768.60
2018-12-29T00:23:18.566Z,98768.10
2018-12-29T00:23:50.168Z,98806.02
2018-12-29T00:24:21.780Z,98764.61
2018-12-29T00:24:53.373Z,98767.98
2018-12-29T00:25:25.004Z,98758.16
2018-12-29T00:25:56.587Z,98767.94
2018-12-29T00:26:28.188Z,98772.20
2018-12-29T00:26:59.790Z,98774.30
2018-12-29T00:27:31.381Z,98777.27
2018-12-29T00:28:02.970Z,98772.58
2018-12-29T00:28:34.576Z,98771.69
2018-12-29T00:29:06.160Z,98776.38
2018-12-29T00:29:37.757Z,98773.82
2018-12-29T00:30:09.367Z,98769.95
2018-12-29T00:30:40.981Z,98772.49
2018-12-29T00:31:12.592Z,98774.16
2018-12-29T00:31:44.205Z,98772.45
2018-12-29T00:32:15.801Z,98775.40
2018-12-29T00:32:47.393Z,98778.81
2018-12-29T00:33:18.985Z,98780.91
2018-12-29T00:33:50.577Z,98782.18
2018-12-29T00:34:22.161Z,98780.91
2018-12-29T00:34:53.754Z,98776.20
2018-12-29T00:35:25.383Z,98783.47
2018-12-29T00:35:56.974Z,98782.18
2018-12-29T00:36:28.588Z,98784.70
2018-12-29T00:37:00.182Z,98779.20
2018-12-29T00:37:31.774Z,98782.18
2018-12-29T00:38:03.374Z,98789.02
2018-12-29T00:38:34.965Z,98790.30
2018-12-29T00:39:06.571Z,98789.44
2018-12-29T00:39:38.161Z,98789.44
2018-12-29T00:40:09.788Z,98789.40
2018-12-29T00:40:41.383Z,98791.99
2018-12-29T00:41:12.973Z,98790.28
2018-12-29T00:41:44.580Z,98791.10
2018-12-29T00:42:16.179Z,98789.39
2018-12-29T00:42:47.781Z,98788.54
2018-12-29T00:43:19.371Z,98787.69
2018-12-29T00:43:50.975Z,98786.45
2018-12-29T00:44:22.579Z,98786.84
2018-12-29T00:44:54.187Z,98791.14
2018-12-29T00:45:25.810Z,98789.44
2018-12-29T00:45:57.418Z,98791.57
2018-12-29T00:46:29.032Z,98791.99
2018-12-29T00:47:00.612Z,98788.16
2018-12-29T00:47:32.193Z,98791.56
2018-12-29T00:48:03.801Z,98790.72
2018-12-29T00:48:35.411Z,98790.30
2018-12-29T00:49:07.027Z,98791.57
2018-12-29T00:49:38.621Z,98794.98
2018-12-29T00:50:10.214Z,98790.30
2018-12-29T00:50:41.829Z,98792.00
2018-12-29T00:51:13.421Z,98792.43
2018-12-29T00:51:45.023Z,98792.85
2018-12-29T00:52:16.622Z,98793.70
2018-12-29T00:52:48.222Z,98789.87
2018-12-29T00:53:19.814Z,98791.15
2018-12-29T00:53:51.424Z,98789.48
2018-12-29T00:54:23.022Z,98794.60
2018-12-29T00:54:54.607Z,98792.89
2018-12-29T00:55:26.216Z,98792.05
2018-12-29T00:55:57.819Z,98793.75
2018-12-29T00:56:29.408Z,98797.58
2018-12-29T00:57:01.006Z,98789.91
2018-12-29T00:57:32.601Z,98791.61
2018-12-29T00:58:04.193Z,98792.89
2018-12-29T00:58:35.791Z,98788.20
2018-12-29T00:59:07.386Z,98791.19
2018-12-29T00:59:38.981Z,98794.59
2018-12-29T01:00:10.577Z,98792.89
2018-12-29T01:00:42.198Z,98789.48
2018-12-29T01:01:13.804Z,98797.16
2018-12-29T01:01:45.402Z,98797.11
2018-12-29T01:02:16.984Z,98797.93
2018-12-29T01:02:48.597Z,98797.11
2018-12-29T01:03:20.209Z,98801.34
2018-12-29T01:03:51.820Z,98796.22
2018-12-29T01:04:23.403Z,98799.25
2018-12-29T01:04:55.015Z,98797.55
2018-12-29T01:05:26.652Z,98797.97
2018-12-29T01:05:58.245Z,98802.23
2018-12-29T01:06:29.858Z,98800.48
2018-12-29T01:07:01.454Z,98800.91
2018-12-29T01:07:33.083Z,98800.95
2018-12-29T01:08:04.700Z,98797.16
2018-12-29T01:08:36.298Z,98796.69
2018-12-29T01:09:07.954Z,98796.65
2018-12-29T01:09:39.541Z,98796.65
2018-12-29T01:10:11.128Z,98793.70
2018-12-29T01:10:42.760Z,98798.73
2018-12-29T01:11:14.357Z,98801.72
2018-12-29T01:11:46.013Z,98797.88
2018-12-29T01:12:17.595Z,98800.02
2018-12-29T01:12:49.176Z,98793.19
2018-12-29T01:13:20.784Z,98799.16
2018-12-29T01:13:52.392Z,98797.45
2018-12-29T01:14:23.999Z,98796.60
2018-12-29T01:14:55.607Z,98796.18
2018-12-29T01:15:27.208Z,98797.89
2018-12-29T01:15:58.803Z,98795.33
2018-12-29T01:16:30.424Z,98794.94
2018-12-29T01:17:02.036Z,98800.06
2018-12-29T01:17:33.649Z,98802.63
2018-12-29T01:18:05.236Z,98800.48
2018-12-29T01:18:36.829Z,98795.37
2018-12-29T01:19:08.440Z,98795.84
2018-12-29T01:19:40.042Z,98798.86
2018-12-29T01:20:11.627Z,98800.11
2018-12-29T01:20:43.529Z,98794.56
2018-12-29T01:21:15.136Z,98802.23
2018-12-29T01:21:46.743Z,98799.67
2018-12-29T01:22:18.346Z,98804.37
2018-12-29T01:22:49.945Z,98799.25
2018-12-29T01:23:21.551Z,98809.06
2018-12-29T01:23:53.155Z,98800.53
2018-12-29T01:24:24.750Z,98805.23
2018-12-29T01:24:56.364Z,98808.20
2018-12-29T01:25:27.976Z,98802.67
2018-12-29T01:25:59.578Z,98810.34
2018-12-29T01:26:31.173Z,98808.21
2018-12-29T01:27:02.779Z,98806.94
2018-12-29T01:27:34.388Z,98802.28
2018-12-29T01:28:05.998Z,98809.53
2018-12-29T01:28:37.594Z,98805.69
2018-12-29T01:29:09.204Z,98808.25
2018-12-29T01:29:40.787Z,98809.57
2018-12-29T01:30:12.388Z,98803.60
2018-12-29T01:30:43.982Z,98807.87
2018-12-29T01:31:15.583Z,98805.69
2018-12-29T01:31:47.163Z,98805.73
2018-12-29T01:32:18.767Z,98809.96
2018-12-29T01:32:50.376Z,98808.69
2018-12-29T01:33:21.983Z,98812.13
2018-12-29T01:33:53.582Z,98810.85
2018-12-29T01:34:25.191Z,98805.73
2018-12-29T01:34:56.804Z,98809.58
2018-12-29T01:35:28.413Z,98806.16
2018-12-29T01:36:00.034Z,98812.98
2018-12-29T01:36:31.639Z,98810.00
2018-12-29T01:37:03.248Z,98807.44
2018-12-29T01:37:34.841Z,98810.85
2018-12-29T01:38:06.451Z,98808.30
2018-12-29T01:38:38.060Z,98807.88
2018-12-29T01:39:09.714Z,98800.66
2018-12-29T01:39:41.306Z,98805.77
2018-12-29T01:40:12.898Z,98806.63
2018-12-29T01:40:44.494Z,98806.63
2018-12-29T01:41:16.100Z,98803.64
2018-12-29T01:41:47.694Z,98809.61
2018-12-29T01:42:19.300Z,98807.05
2018-12-29T01:42:50.908Z,98810.51
2018-12-29T01:43:22.506Z,98810.51
2018-12-29T01:43:54.124Z,98807.95
2018-12-29T01:44:25.717Z,98816.44
2018-12-29T01:44:57.329Z,98791.86
2018-12-29T01:45:28.926Z,98810.90
2018-12-29T01:46:00.549Z,98807.48
2018-12-29T01:46:32.157Z,98805.81
2018-12-29T01:47:03.755Z,98805.39
2018-12-29T01:47:35.363Z,98807.52
2018-12-29T01:48:06.968Z,98809.66
2018-12-29T01:48:38.552Z,98808.38
2018-12-29T01:49:10.160Z,98808.38
2018-12-29T01:49:41.744Z,98810.94
2018-12-29T01:50:13.357Z,98807.52
2018-12-29T01:50:44.968Z,98814.34
2018-12-29T01:51:16.562Z,98812.64
2018-12-29T01:51:48.158Z,98808.80
2018-12-29T01:52:19.750Z,98813.06
2018-12-29T01:52:51.348Z,98808.38
2018-12-29T01:53:22.955Z,98809.66
2018-12-29T01:53:54.564Z,98810.55
2018-12-29T01:54:26.147Z,98809.27
2018-12-29T01:54:57.741Z,98811.41
2018-12-29T01:55:29.338Z,98808.84
2018-12-29T01:56:00.937Z,98811.83
2018-12-29T01:56:32.552Z,98816.09
2018-12-29T01:57:04.160Z,98814.82
2018-12-29T01:57:35.768Z,98816.52
2018-12-29T01:58:07.371Z,98808.45
2018-12-29T01:58:38.966Z,98815.70
2018-12-29T01:59:10.576Z,98819.55
2018-12-29T01:59:42.184Z,98820.40
2018-12-29T02:00:13.778Z,98817.41
2018-12-29T02:00:45.383Z,98815.24
2018-12-29T02:01:17.019Z,98814.35
2018-12-29T02:01:48.628Z,98815.62
2018-12-29T02:02:20.235Z,98810.81
2018-12-29T02:02:51.830Z,98815.50
2018-12-29T02:03:23.426Z,98815.89
2018-12-29T02:03:55.029Z,98809.88
2018-12-29T02:04:26.622Z,98809.88
2018-12-29T02:04:58.240Z,98809.84
2018-12-29T02:05:29.852Z,98812.82
2018-12-29T02:06:01.449Z,98812.82
2018-12-29T02:06:33.066Z,98804.67
2018-12-29T02:07:04.662Z,98817.94
2018-12-29T02:07:36.249Z,98807.70
2018-12-29T02:08:07.867Z,98808.98
2018-12-29T02:08:39.466Z,98811.08
2018-12-29T02:09:11.072Z,98811.97
2018-12-29T02:09:42.669Z,98811.97
2018-12-29T02:10:14.261Z,98808.98
2018-12-29T02:10:45.858Z,98812.40
2018-12-29T02:11:17.478Z,98810.69
2018-12-29T02:11:49.114Z,98814.99
2018-12-29T02:12:20.719Z,98807.31
2018-12-29T02:12:52.329Z,98809.88
2018-12-29T02:13:23.936Z,98808.12
2018-12-29T02:13:55.530Z,98806.84
2018-12-29T02:14:27.122Z,98800.84
2018-12-29T02:14:58.707Z,98807.27
2018-12-29T02:15:30.327Z,98807.70
2018-12-29T02:16:01.924Z,98809.45
2018-12-29T02:16:33.542Z,98807.73
2018-12-29T02:17:05.138Z,98804.29
2018-12-29T02:17:36.734Z,98806.46
2018-12-29T02:18:08.326Z,98803.47
2018-12-29T02:18:39.923Z,98809.88
2018-12-29T02:19:11.550Z,98803.91
2018-12-29T02:19:43.154Z,98803.05
2018-12-29T02:20:14.745Z,98805.61
2018-12-29T02:20:46.352Z,98796.26
2018-12-29T02:21:17.960Z,98806.46
2018-12-29T02:21:49.588Z,98806.89
2018-12-29T02:22:21.181Z,98800.91
2018-12-29T02:22:52.782Z,98799.63
2018-12-29T02:23:24.378Z,98799.20
2018-12-29T02:23:55.961Z,98805.17
2018-12-29T02:24:27.554Z,98797.50
2018-12-29T02:24:59.147Z,98799.64
2018-12-29T02:25:30.747Z,98801.77
2018-12-29T02:26:02.356Z,98797.11
2018-12-29T02:26:34.303Z,98797.55
2018-12-29T02:27:05.884Z,98797.93
2018-12-29T02:27:37.481Z,98805.18
2018-12-29T02:28:09.080Z,98798.78
2018-12-29T02:28:40.694Z,98797.08
2018-12-29T02:29:12.311Z,98797.50
2018-12-29T02:29:43.904Z,98794.55
2018-12-29T02:30:15.485Z,98794.56
2018-12-29T02:30:47.078Z,98797.55
2018-12-29T02:31:18.680Z,98803.48
2018-12-29T02:31:50.303Z,98797.93
2018-12-29T02:32:21.888Z,98801.34
2018-12-29T02:32:53.492Z,98799.20
2018-12-29T02:33:25.154Z,98800.91
2018-12-29T02:33:56.745Z,98799.20
2018-12-29T02:34:28.356Z,98797.07
2018-12-29T02:34:59.953Z,98800.45
2018-12-29T02:35:31.551Z,98789.35
2018-12-29T02:36:03.148Z,98794.52
2018-12-29T02:36:34.768Z,98793.66
2018-12-29T02:37:06.404Z,98795.33
2018-12-29T02:37:38.014Z,98791.10
2018-12-29T02:38:09.608Z,98795.80
2018-12-29T02:38:41.277Z,98789.02
2018-12-29T02:39:12.873Z,98788.13
2018-12-29T02:39:44.465Z,98789.82
2018-12-29T02:40:16.063Z,98787.27
2018-12-29T02:40:47.673Z,98791.95
2018-12-29T02:41:19.280Z,98786.02
2018-12-29T02:41:50.916Z,98789.83
2018-12-29T02:42:22.511Z,98788.55
2018-12-29T02:42:54.115Z,98792.39
2018-12-29T02:43:25.698Z,98790.25
2018-12-29T02:43:57.295Z,98794.13
2018-12-29T02:44:28.897Z,98785.12
2018-12-29T02:45:00.481Z,98784.70
2018-12-29T02:45:33.380Z,98789.39
2018-12-29T02:46:03.732Z,98783.00
2018-12-29T02:46:35.327Z,98785.12
2018-12-29T02:47:06.951Z,98783.46
2018-12-29T02:47:38.549Z,98781.72
2018-12-29T02:48:10.143Z,98778.30
2018-12-29T02:48:41.752Z,98780.43
2018-12-29T02:49:13.363Z,98777.02
2018-12-29T02:49:44.968Z,98780.00
2018-12-29T02:50:16.578Z,98776.20
2018-12-29T02:50:48.168Z,98781.28
2018-12-29T02:51:19.775Z,98783.80
2018-12-29T02:51:51.696Z,98775.27
2018-12-29T02:52:23.303Z,98781.24
2018-12-29T02:52:54.903Z,98771.01
2018-12-29T02:53:26.520Z,98771.89
2018-12-29T02:53:58.134Z,98745.75
2018-12-29T02:54:29.733Z,98771.90
2018-12-29T02:55:01.320Z,98773.17
2018-12-29T02:55:32.901Z,98771.89
2018-12-29T02:56:04.484Z,98769.72
2018-12-29T02:56:36.094Z,98773.56
2018-12-29T02:57:07.722Z,98763.75
2018-12-29T02:57:39.305Z,98769.30
2018-12-29T02:58:10.960Z,98768.06
2018-12-29T02:58:42.534Z,98767.20
2018-12-29T02:59:14.134Z,98762.52
2018-12-29T02:59:45.725Z,98765.92
2018-12-29T03:00:17.324Z,98758.63
2018-12-29T03:00:48.936Z,98759.91
2018-12-29T03:01:20.531Z,98762.42
2018-12-29T03:01:52.130Z,98764.17
2018-12-29T03:02:23.757Z,98764.98
2018-12-29T03:02:55.364Z,98763.31
2018-12-29T03:03:26.976Z,98747.58
2018-12-29T03:03:58.575Z,98760.33
2018-12-29T03:04:30.187Z,98756.48
2018-12-29T03:05:01.797Z,98754.36
2018-12-29T03:05:33.394Z,98756.02
2018-12-29T03:06:04.991Z,98718.41
2018-12-29T03:06:36.589Z,98754.74
2018-12-29T03:07:08.213Z,98753.89
2018-12-29T03:07:39.810Z,98753.47
2018-12-29T03:08:11.406Z,98754.36
2018-12-29T03:08:43.010Z,98753.08
2018-12-29T03:09:14.612Z,98751.41
2018-12-29T03:09:46.224Z,98756.11
2018-12-29T03:10:17.837Z,98750.53
2018-12-29T03:10:49.432Z,98751.80
2018-12-29T03:11:21.017Z,98749.70
2018-12-29T03:11:52.633Z,98752.27
2018-12-29T03:12:24.273Z,98748.00
2018-12-29T03:12:55.877Z,98750.98
2018-12-29T03:13:27.518Z,98745.44
2018-12-29T03:13:59.117Z,98742.47
2018-12-29T03:14:30.715Z,98741.61
2018-12-29T03:15:02.300Z,98741.17
2018-12-29T03:15:40.828Z,98739.47
2018-12-29T03:16:05.554Z,98733.92
2018-12-29T03:16:37.160Z,98739.89
2018-12-29T03:17:08.797Z,98749.94
2018-12-29T03:17:40.423Z,98731.36
2018-12-29T03:18:12.027Z,98734.78
2018-12-29T03:18:43.626Z,98734.78
2018-12-29T03:19:15.233Z,98737.34
2018-12-29T03:19:46.844Z,98733.97
2018-12-29T03:20:18.431Z,98736.52
2018-12-29T03:20:50.032Z,98743.31
2018-12-29T03:21:21.647Z,98729.28
2018-12-29T03:21:53.244Z,98736.96
2018-12-29T03:22:24.865Z,98742.93
2018-12-29T03:22:56.458Z,98735.64
2018-12-29T03:23:28.053Z,98737.38
2018-12-29T03:23:59.651Z,98744.20
2018-12-29T03:24:31.260Z,98737.85
2018-12-29T03:25:02.880Z,98734.83
2018-12-29T03:25:34.496Z,98737.81
2018-12-29T03:26:06.095Z,98736.57
2018-12-29T03:26:37.718Z,98739.95
2018-12-29T03:27:09.313Z,98742.12
2018-12-29T03:27:40.951Z,98739.12
2018-12-29T03:28:12.553Z,98742.55
2018-12-29T03:28:44.159Z,98741.69
2018-12-29T03:29:15.752Z,98743.36
2018-12-29T03:29:47.356Z,98741.23
2018-12-29T03:30:18.955Z,98735.72
2018-12-29T03:30:50.586Z,98732.73
2018-12-29T03:31:22.212Z,98733.16
2018-12-29T03:31:53.826Z,98731.88
2018-12-29T03:32:25.456Z,98739.09
2018-12-29T03:32:57.080Z,98730.59
2018-12-29T03:33:28.678Z,98737.43
2018-12-29T03:34:00.264Z,98737.85
2018-12-29T03:34:31.864Z,98735.30
2018-12-29T03:35:03.462Z,98738.67
2018-12-29T03:35:35.068Z,98731.03
2018-12-29T03:36:06.680Z,98735.72
2018-12-29T03:36:38.278Z,98737.42
2018-12-29T03:37:09.888Z,98731.45
2018-12-29T03:37:41.518Z,98720.50
2018-12-29T03:38:13.124Z,98735.73
2018-12-29T03:38:44.712Z,98732.34
2018-12-29T03:39:16.306Z,98737.85
2018-12-29T03:39:47.914Z,98728.38
2018-12-29T03:40:19.517Z,98731.84
2018-12-29T03:40:51.133Z,98735.80
2018-12-29T03:41:22.739Z,98731.20
2018-12-29T03:41:54.352Z,98730.91
2018-12-29T03:42:25.946Z,98725.45
2018-12-29T03:42:57.553Z,98727.33
2018-12-29T03:43:29.136Z,98726.44
2018-12-29T03:44:00.735Z,98730.27
2018-12-29T03:44:32.334Z,98728.09
2018-12-29T03:45:03.934Z,98731.03
2018-12-29T03:45:35.536Z,98734.83
2018-12-29T03:46:07.160Z,98730.95
2018-12-29T03:46:38.757Z,98724.94
2018-12-29T03:47:10.351Z,98728.78
2018-12-29T03:47:41.974Z,98730.05
2018-12-29T03:48:13.642Z,98729.20
2018-12-29T03:48:45.249Z,98729.55
2018-12-29T03:49:16.850Z,98723.95
2018-12-29T03:49:48.451Z,98727.32
2018-12-29T03:50:20.047Z,98727.27
2018-12-29T03:50:51.659Z,98728.52
2018-12-29T03:51:23.298Z,98717.84
2018-12-29T03:51:54.885Z,98719.51
2018-12-29T03:52:26.487Z,98722.50
2018-12-29T03:52:58.107Z,98721.21
2018-12-29T03:53:29.715Z,98719.47
2018-12-29T03:54:01.319Z,98716.90
2018-12-29T03:54:32.913Z,98715.62
2018-12-29T03:55:04.514Z,98715.58
2018-12-29T03:55:36.136Z,98717.66
2018-12-29T03:56:07.748Z,98716.81
2018-12-29T03:56:39.347Z,98719.37
2018-12-29T03:57:10.935Z,98715.06
2018-12-29T03:57:42.545Z,98712.93
2018-12-29T03:58:14.138Z,98697.33
2018-12-29T03:58:45.729Z,98719.75
2018-12-29T03:59:17.321Z,98715.05
2018-12-29T03:59:48.926Z,98711.17
2018-12-29T04:00:20.515Z,98719.27
2018-12-29T04:00:52.125Z,98715.86
2018-12-29T04:01:23.732Z,98726.53
2018-12-29T04:01:55.331Z,98718.00
2018-12-29T04:02:26.930Z,98715.00
2018-12-29T04:02:58.544Z,98715.01
2018-12-29T04:03:30.134Z,98721.79
2018-12-29T04:04:01.739Z,98716.67
2018-12-29T04:04:33.341Z,98718.41
2018-12-29T04:05:04.947Z,98686.36
2018-12-29T04:05:36.549Z,98718.42
2018-12-29T04:06:08.143Z,98717.14
2018-12-29T04:06:39.756Z,98718.38
2018-12-29T04:07:11.363Z,98717.95
2018-12-29T04:07:42.971Z,98721.74
2018-12-29T04:08:14.566Z,98722.59
2018-12-29T04:08:46.158Z,98719.19
2018-12-29T04:09:17.760Z,98723.83
2018-12-29T04:09:49.368Z,98720.84
2018-12-29T04:10:20.990Z,98721.27
2018-12-29T04:10:52.610Z,98724.69
2018-12-29T04:11:24.213Z,98721.70
2018-12-29T04:11:55.815Z,98723.44
2018-12-29T04:12:27.423Z,98720.03
2018-12-29T04:12:59.046Z,98725.11
2018-12-29T04:13:30.670Z,98725.55
2018-12-29T04:14:02.262Z,98720.50
2018-12-29T04:14:33.859Z,98723.02
2018-12-29T04:15:05.467Z,98717.09
2018-12-29T04:15:37.083Z,98717.52
2018-12-29T04:16:08.682Z,98725.67
2018-12-29T04:16:40.305Z,98726.11
2018-12-29T04:17:11.905Z,98721.89
2018-12-29T04:17:43.506Z,98727.91
2018-12-29T04:18:15.111Z,98718.98
2018-12-29T04:18:46.705Z,98723.27
2018-12-29T04:19:18.299Z,98727.14
2018-12-29T04:19:49.893Z,98721.59
2018-12-29T04:20:21.496Z,98723.73
2018-12-29T04:20:53.092Z,98734.40
2018-12-29T04:21:24.682Z,98724.58
2018-12-29T04:21:56.284Z,98726.72
2018-12-29T04:22:27.894Z,98730.56
2018-12-29T04:22:59.510Z,98732.73
2018-12-29T04:23:31.124Z,98725.09
2018-12-29T04:24:02.741Z,98723.39
2018-12-29T04:24:34.338Z,98703.95
2018-12-29T04:25:05.940Z,98723.86
2018-12-29T04:25:37.538Z,98727.23
2018-12-29T04:26:09.119Z,98723.81
2018-12-29T04:26:40.734Z,98720.79
2018-12-29T04:27:12.333Z,98719.08
2018-12-29T04:27:43.925Z,98727.61
2018-12-29T04:28:15.521Z,98725.05
2018-12-29T04:28:47.119Z,98721.64
2018-12-29T04:29:18.706Z,98728.85
2018-12-29T04:29:50.311Z,98728.47
2018-12-29T04:30:21.910Z,98730.21
2018-12-29T04:30:53.505Z,98725.53
2018-12-29T04:31:25.107Z,98728.09
2018-12-29T04:31:56.704Z,98724.67
2018-12-29T04:32:28.332Z,98731.97
2018-12-29T04:32:59.945Z,98727.27
2018-12-29T04:33:31.574Z,98729.83
2018-12-29T04:34:03.171Z,98733.67
2018-12-29T04:34:34.771Z,98734.10
2018-12-29T04:35:06.975Z,98730.69
2018-12-29T04:35:38.556Z,98735.81
2018-12-29T04:36:10.155Z,98735.42
2018-12-29T04:36:41.745Z,98734.14
2018-12-29T04:37:13.341Z,98735.00
2018-12-29T04:37:44.943Z,98732.05
2018-12-29T04:38:16.765Z,98733.33
2018-12-29T04:38:48.364Z,98740.55
2018-12-29T04:39:19.961Z,98730.78
2018-12-29T04:39:51.553Z,98733.30
2018-12-29T04:40:23.146Z,98732.44
2018-12-29T04:40:54.728Z,98734.15
2018-12-29T04:41:26.340Z,98728.21
2018-12-29T04:41:57.924Z,98735.89
2018-12-29T04:42:29.523Z,98730.35
2018-12-29T04:43:01.127Z,98729.97
2018-12-29T04:43:32.764Z,98735.09
2018-12-29T04:44:04.376Z,98734.66
2018-12-29T04:44:35.974Z,98728.69
2018-12-29T04:45:07.569Z,98727.41
2018-12-29T04:45:39.161Z,98731.64
2018-12-29T04:46:10.776Z,98727.80
2018-12-29T04:46:42.373Z,98726.98
2018-12-29T04:47:13.966Z,98729.97
2018-12-29T04:47:45.561Z,98724.42
2018-12-29T04:48:17.167Z,98723.56
2018-12-29T04:48:48.804Z,98735.94
2018-12-29T04:49:20.398Z,98729.55
2018-12-29T04:49:52.003Z,98728.69
2018-12-29T04:50:23.598Z,98730.82
2018-12-29T04:50:55.195Z,98730.41
2018-12-29T04:51:26.788Z,98737.65
2018-12-29T04:51:58.376Z,98735.09
2018-12-29T04:52:29.971Z,98739.31
2018-12-29T04:53:01.583Z,98738.88
2018-12-29T04:53:33.220Z,98735.90
2018-12-29T04:54:04.832Z,98741.02
2018-12-29T04:54:36.450Z,98736.75
2018-12-29T04:55:08.061Z,98738.03
2018-12-29T04:55:39.648Z,98738.88
2018-12-29T04:56:11.257Z,98735.08
2018-12-29T04:56:42.963Z,98736.75
2018-12-29T04:57:14.575Z,98736.33
2018-12-29T04:57:46.176Z,98734.23
2018-12-29T04:58:17.770Z,98739.31
2018-12-29T04:58:49.376Z,98741.87
2018-12-29T04:59:20.960Z,98735.05
2018-12-29T04:59:52.564Z,98740.16
2018-12-29T05:00:24.162Z,98739.31
2018-12-29T05:00:55.764Z,98741.88
2018-12-29T05:01:27.347Z,98738.03
2018-12-29T05:01:58.955Z,98737.19
2018-12-29T05:02:30.549Z,98738.46
2018-12-29T05:03:02.155Z,98743.58
2018-12-29T05:03:33.781Z,98738.88
2018-12-29T05:04:05.404Z,98740.16
2018-12-29T05:04:36.997Z,98744.04
2018-12-29T05:05:08.589Z,98739.35
2018-12-29T05:05:40.196Z,98742.77
2018-12-29T05:06:11.801Z,98737.23
2018-12-29T05:06:43.412Z,98739.40
2018-12-29T05:07:15.025Z,98739.44
2018-12-29T05:07:46.611Z,98739.02
2018-12-29T05:08:18.220Z,98743.31
2018-12-29T05:08:49.856Z,98744.61
2018-12-29T05:09:21.462Z,98746.34
2018-12-29T05:09:53.067Z,98741.66
2018-12-29T05:10:24.665Z,98745.07
2018-12-29T05:10:56.272Z,98746.81
2018-12-29T05:11:27.860Z,98747.67
2018-12-29T05:11:59.453Z,98744.72
2018-12-29T05:12:31.036Z,98743.02
2018-12-29T05:13:02.644Z,98743.91
2018-12-29T05:13:34.247Z,98749.89
2018-12-29T05:14:05.870Z,98743.95
2018-12-29T05:14:37.480Z,98749.53
2018-12-29T05:15:09.064Z,98741.05
2018-12-29T05:15:40.661Z,98745.70
2018-12-29T05:16:12.912Z,98745.70
2018-12-29T05:16:43.935Z,98750.39
2018-12-29T05:17:15.544Z,98748.73
2018-12-29T05:17:47.182Z,98749.58
2018-12-29T05:18:18.773Z,98750.00
2018-12-29T05:18:50.393Z,98753.41
2018-12-29T05:19:21.990Z,98749.11
2018-12-29T05:19:53.590Z,98750.00
2018-12-29T05:20:25.189Z,98752.98
2018-12-29T05:20:56.787Z,98760.23
2018-12-29T05:21:28.377Z,98752.56
2018-12-29T05:21:59.970Z,98759.81
2018-12-29T05:22:31.567Z,98752.98
2018-12-29T05:23:03.175Z,98751.28
2018-12-29T05:23:34.784Z,98758.57
2018-12-29T05:24:06.420Z,98754.73
2018-12-29T05:24:38.018Z,98750.05
2018-12-29T05:25:09.619Z,98752.56
2018-12-29T05:25:41.228Z,98750.43
2018-12-29T05:26:12.812Z,98749.11
2018-12-29T05:26:44.405Z,98748.26
2018-12-29T05:27:16.012Z,98748.72
2018-12-29T05:27:47.615Z,98752.52
2018-12-29T05:28:19.210Z,98751.20
2018-12-29T05:28:50.843Z,98754.58
2018-12-29T05:29:22.452Z,98752.40
2018-12-29T05:29:54.054Z,98749.77
2018-12-29T05:30:25.650Z,98753.55
2018-12-29T05:30:57.259Z,98753.05
2018-12-29T05:31:28.843Z,98754.71
2018-12-29T05:32:00.452Z,98757.66
2018-12-29T05:32:32.064Z,98756.33
2018-12-29T05:33:03.676Z,98755.86
2018-12-29T05:33:35.273Z,98751.98
2018-12-29T05:34:06.897Z,98754.92
2018-12-29T05:34:38.503Z,98749.76
2018-12-29T05:35:10.107Z,98755.73
2018-12-29T05:35:41.704Z,98752.28
2018-12-29T05:36:13.303Z,98754.41
2018-12-29T05:36:44.899Z,98751.84
2018-12-29T05:37:16.497Z,98758.63
2018-12-29T05:37:48.081Z,98755.21
2018-12-29T05:38:19.663Z,98756.48
2018-12-29T05:38:51.261Z,98761.19
2018-12-29T05:39:22.892Z,98757.73
2018-12-29T05:39:54.504Z,98758.16
2018-12-29T05:40:26.102Z,98761.58
2018-12-29T05:40:57.683Z,98753.08
2018-12-29T05:41:29.287Z,98753.93
2018-12-29T05:42:00.894Z,98761.99
2018-12-29T05:42:32.508Z,98761.14
2018-12-29T05:43:04.096Z,98762.38
2018-12-29T05:43:35.963Z,98762.38
2018-12-29T05:44:07.595Z,98762.77
2018-12-29T05:44:39.189Z,98757.22
2018-12-29T05:45:10.806Z,98764.05
2018-12-29T05:45:42.411Z,98759.30
2018-12-29T05:46:20.141Z,98764.42
2018-12-29T05:46:45.678Z,98756.31
2018-12-29T05:47:17.273Z,98755.45
2018-12-29T05:47:48.870Z,98760.16
2018-12-29T05:48:20.472Z,98761.42
2018-12-29T05:48:52.073Z,98765.70
2018-12-29T05:49:23.694Z,98756.31
2018-12-29T05:49:55.289Z,98764.00
2018-12-29T05:50:26.882Z,98763.14
2018-12-29T05:50:58.479Z,98760.16
2018-12-29T05:52:01.317Z,98758.91
2018-12-29T05:52:32.927Z,98761.91
2018-12-29T05:53:04.536Z,98763.18
2018-12-29T05:53:36.144Z,98766.17
2018-12-29T05:54:07.741Z,98760.20
2018-12-29T05:54:39.347Z,98755.46
2018-12-29T05:55:10.942Z,98759.73
2018-12-29T05:55:42.544Z,98761.43
2018-12-29T05:56:14.138Z,98759.73
2018-12-29T05:56:45.720Z,98754.61
2018-12-29T05:57:17.300Z,98771.25
2018-12-29T05:57:48.898Z,98749.95
2018-12-29T05:58:20.480Z,98753.33
2018-12-29T05:58:52.088Z,98746.97
2018-12-29T05:59:23.728Z,98754.61
2018-12-29T05:59:55.336Z,98753.80
2018-12-29T06:00:26.971Z,98750.38
2018-12-29T06:00:58.554Z,98755.88
2018-12-29T06:01:30.154Z,98752.09
2018-12-29T06:02:01.749Z,98754.17
2018-12-29T06:02:33.332Z,98752.90
2018-12-29T06:03:04.916Z,98761.48
2018-12-29T06:03:36.510Z,98764.93
2018-12-29T06:04:08.116Z,98760.67
2018-12-29T06:04:39.739Z,98755.17
2018-12-29T06:05:11.335Z,98759.86
2018-12-29T06:05:42.932Z,98720.54
2018-12-29T06:06:14.529Z,98751.76
2018-12-29T06:06:46.124Z,98760.33
2018-12-29T06:07:17.718Z,98761.19
2018-12-29T06:07:49.330Z,98759.95
2018-12-29T06:08:20.939Z,98723.61
2018-12-29T06:08:52.548Z,98759.53
2018-12-29T06:09:24.176Z,98760.00
2018-12-29T06:09:55.760Z,98757.87
2018-12-29T06:10:27.354Z,98761.71
2018-12-29T06:10:58.964Z,98766.02
2018-12-29T06:11:30.559Z,98761.33